Time;durP1;ratioP1;P1;durP2;ratioP2;P2;SDS_P1;SDS_P2;PMS_P1;PMS_P2;Temp;Humidity;BMP_temperature;BMP_pressure;BME280_temperature;BME280_humidity;BME280_pressure;Samples;Min_cycle;Max_cycle;Signal;HPM_P1;HPM_P2
2021/12/10 00:01:48;;;;;;;;;;;5.90;99.90;;;;;;5003632;28;19910;-75
2021/12/10 00:04:14;;;;;;;;;;;6.00;99.90;;;;;;5029079;28;19996;-75
2021/12/10 00:06:42;;;;;;;;;;;6.10;99.90;;;;;;5040987;28;19910;-76
2021/12/10 00:09:10;;;;;;;;;;;6.50;99.90;;;;;;5041150;28;19932;-76
2021/12/10 00:11:38;;;;;;;;;;;6.70;99.90;;;;;;5040584;28;19916;-76
2021/12/10 00:14:05;;;;;;;;;;;7.00;99.90;;;;;;5041011;28;19917;-75
2021/12/10 00:16:32;;;;;;;;;;;7.30;99.90;;;;;;5007141;28;19917;-76
2021/12/10 00:19:12;;;;;;;;;;;7.70;99.90;;;;;;5021634;28;19920;-76
2021/12/10 00:21:38;;;;;;;;;;;8.10;99.90;;;;;;5038659;28;19910;-77
2021/12/10 00:24:04;;;;;;;;;;;8.70;99.90;;;;;;5040876;28;19909;-75
2021/12/10 00:26:29;;;;;;;;;;;9.00;99.90;;;;;;5039261;28;19909;-75
2021/12/10 00:29:02;;;;;;;;;;;9.30;99.90;;;;;;5022935;28;20384;-77
2021/12/10 00:34:04;;;;;;;;;;;9.60;99.90;;;;;;5039968;28;19951;-77
2021/12/10 00:36:30;;;;;;;;;;;9.70;99.90;;;;;;5020624;28;19992;-77
2021/12/10 00:38:56;;;;;;;;;;;9.80;99.90;;;;;;5020650;28;19979;-76
2021/12/10 00:41:23;;;;;;;;;;;10.00;99.90;;;;;;5020567;28;19964;-76
2021/12/10 00:43:49;;;;;;;;;;;10.00;99.90;;;;;;5020661;28;20311;-76
2021/12/10 00:46:14;;;;;;;;;;;10.20;99.90;;;;;;5001926;28;20020;-77
2021/12/10 00:48:40;;;;;;;;;;;10.30;99.90;;;;;;5020697;28;19916;-76
2021/12/10 00:51:07;;;;;;;;;;;10.50;99.90;;;;;;5020413;28;19909;-76
2021/12/10 00:53:33;;;;;;;;;;;10.60;99.90;;;;;;5002860;28;19974;-76
2021/12/10 00:55:59;;;;;;;;;;;10.70;99.90;;;;;;5020540;28;20380;-76
2021/12/10 00:58:26;;;;;;;;;;;10.80;99.90;;;;;;5002524;28;19917;-76
2021/12/10 01:00:53;;;;;;;;;;;10.90;99.90;;;;;;5020123;28;19917;-76
2021/12/10 01:03:23;;;;;;;;;;;10.90;99.90;;;;;;5020291;28;19917;-76
2021/12/10 01:05:52;;;;;;;;;;;11.10;99.90;;;;;;5027670;28;19916;-76
2021/12/10 01:08:18;;;;;;;;;;;11.10;99.90;;;;;;5039903;28;19957;-76
2021/12/10 01:10:46;;;;;;;;;;;11.10;99.90;;;;;;5039903;28;19913;-76
2021/12/10 01:13:15;;;;;;;;;;;11.20;99.90;;;;;;5038333;28;20431;-75
2021/12/10 01:23:45;;;;;;;;;;;11.20;99.90;;;;;;5030633;28;20007;-76
2021/12/10 01:24:05;;;;;;;;;;;11.20;99.90;;;;;;5020060;28;19980;-75
2021/12/10 01:26:54;;;;;;;;;;;11.30;99.90;;;;;;5019522;28;20393;-75
2021/12/10 01:29:35;;;;;;;;;;;11.40;99.90;;;;;;5001867;28;19917;-76
2021/12/10 01:32:02;;;;;;;;;;;11.40;99.90;;;;;;5019580;28;19977;-76
2021/12/10 01:34:28;;;;;;;;;;;11.40;99.90;;;;;;5020408;28;20378;-74
2021/12/10 01:36:54;;;;;;;;;;;11.40;99.90;;;;;;5019655;28;19913;-73
2021/12/10 01:39:21;;;;;;;;;;;11.40;99.90;;;;;;5019462;28;19913;-73
2021/12/10 01:41:55;;;;;;;;;;;11.40;99.90;;;;;;5019502;28;19909;-74
2021/12/10 01:44:28;;;;;;;;;;;11.50;99.90;;;;;;5019332;28;19962;-74
2021/12/10 01:46:55;;;;;;;;;;;11.50;99.90;;;;;;5019410;28;19964;-74
2021/12/10 01:49:20;;;;;;;;;;;11.50;99.90;;;;;;5001534;28;19962;-73
2021/12/10 01:51:47;;;;;;;;;;;11.50;99.90;;;;;;5001741;28;20008;-74
2021/12/10 01:54:20;;;;;;;;;;;11.50;99.90;;;;;;5001546;28;19909;-74
2021/12/10 01:56:46;;;;;;;;;;;11.50;99.90;;;;;;5019186;28;19919;-74
2021/12/10 01:59:12;;;;;;;;;;;11.40;99.90;;;;;;5017854;28;19948;-74
2021/12/10 02:01:44;;;;;;;;;;;11.50;99.90;;;;;;5018878;28;20349;-73
2021/12/10 02:04:11;;;;;;;;;;;11.50;99.90;;;;;;5001738;28;19909;-76
2021/12/10 02:06:38;;;;;;;;;;;11.50;99.90;;;;;;5017684;28;19910;-74
2021/12/10 02:09:04;;;;;;;;;;;11.50;99.90;;;;;;5019207;28;19960;-74
2021/12/10 02:11:30;;;;;;;;;;;11.50;99.90;;;;;;5020134;28;19921;-74
2021/12/10 02:13:55;;;;;;;;;;;11.50;99.90;;;;;;5038727;28;19917;-74
2021/12/10 02:16:22;;;;;;;;;;;11.60;99.90;;;;;;5023606;28;19909;-74
2021/12/10 02:18:49;;;;;;;;;;;11.60;99.90;;;;;;5019288;28;20382;-74
2021/12/10 02:21:19;;;;;;;;;;;11.60;99.90;;;;;;5015937;28;19909;-74
2021/12/10 02:23:48;;;;;;;;;;;11.70;99.90;;;;;;5037096;28;19913;-74
2021/12/10 02:26:14;;;;;;;;;;;11.70;99.90;;;;;;5038280;28;19917;-74
2021/12/10 02:28:41;;;;;;;;;;;11.70;99.90;;;;;;5038530;28;20362;-75
2021/12/10 02:31:08;;;;;;;;;;;11.70;99.90;;;;;;5020220;28;19921;-74
2021/12/10 02:33:34;;;;;;;;;;;11.70;99.90;;;;;;5038448;28;20407;-74
2021/12/10 02:36:00;;;;;;;;;;;11.80;99.90;;;;;;5038054;28;19920;-75
2021/12/10 02:38:26;;;;;;;;;;;11.70;99.90;;;;;;5027462;28;19913;-74
2021/12/10 02:40:53;;;;;;;;;;;11.70;99.90;;;;;;5000609;28;19960;-74
2021/12/10 02:43:19;;;;;;;;;;;11.80;99.90;;;;;;5017089;28;19909;-74
2021/12/10 02:45:46;;;;;;;;;;;11.80;99.90;;;;;;5018028;28;19920;-74
2021/12/10 02:48:12;;;;;;;;;;;11.70;99.90;;;;;;5018180;28;20004;-73
2021/12/10 02:50:38;;;;;;;;;;;11.70;99.90;;;;;;5018218;28;19959;-74
2021/12/10 02:53:05;;;;;;;;;;;11.70;99.90;;;;;;5028709;28;19910;-74
2021/12/10 02:55:31;;;;;;;;;;;11.70;99.90;;;;;;5020648;28;19910;-74
2021/12/10 02:57:58;;;;;;;;;;;11.70;99.90;;;;;;5017977;28;19936;-75
2021/12/10 03:00:27;;;;;;;;;;;11.70;99.90;;;;;;5017797;28;19916;-74
2021/12/10 03:02:52;;;;;;;;;;;11.60;99.90;;;;;;5016825;28;19932;-74
2021/12/10 03:05:18;;;;;;;;;;;11.60;99.90;;;;;;5016713;28;19910;-72
2021/12/10 03:07:44;;;;;;;;;;;11.60;99.90;;;;;;5017648;28;20298;-72
2021/12/10 03:10:16;;;;;;;;;;;11.60;99.90;;;;;;5016625;28;19910;-72
2021/12/10 03:12:42;;;;;;;;;;;11.60;99.90;;;;;;5028551;28;19921;-72
2021/12/10 03:15:09;;;;;;;;;;;11.50;99.90;;;;;;5019657;28;19916;-72
2021/12/10 03:17:34;;;;;;;;;;;11.50;99.90;;;;;;5017675;28;19965;-73
2021/12/10 03:20:02;;;;;;;;;;;11.50;99.90;;;;;;5022688;28;19917;-72
2021/12/10 03:22:28;;;;;;;;;;;11.40;99.90;;;;;;5037599;28;20381;-72
2021/12/10 03:24:53;;;;;;;;;;;11.40;99.90;;;;;;5037437;28;19913;-72
2021/12/10 03:27:20;;;;;;;;;;;11.40;99.90;;;;;;5037598;28;19955;-72
2021/12/10 03:29:47;;;;;;;;;;;11.40;99.90;;;;;;5019652;28;19910;-73
2021/12/10 03:32:15;;;;;;;;;;;11.30;99.90;;;;;;5037334;28;19909;-74
2021/12/10 03:34:41;;;;;;;;;;;11.30;99.90;;;;;;5037373;28;20000;-73
2021/12/10 03:37:07;;;;;;;;;;;11.40;99.90;;;;;;5037306;28;19967;-73
2021/12/10 03:39:33;;;;;;;;;;;11.40;99.90;;;;;;5019527;28;19913;-73
2021/12/10 03:41:59;;;;;;;;;;;11.40;99.90;;;;;;5037406;28;20361;-73
2021/12/10 03:44:25;;;;;;;;;;;11.50;99.90;;;;;;5019583;28;20741;-74
2021/12/10 03:46:51;;;;;;;;;;;11.50;99.90;;;;;;5037212;28;19913;-73
2021/12/10 03:49:17;;;;;;;;;;;11.50;99.90;;;;;;5037073;28;19909;-72
2021/12/10 03:51:43;;;;;;;;;;;11.60;99.90;;;;;;5037437;28;19909;-72
2021/12/10 03:54:09;;;;;;;;;;;11.50;99.90;;;;;;5019384;28;19909;-73
2021/12/10 03:56:36;;;;;;;;;;;11.60;99.90;;;;;;5037246;28;19944;-73
2021/12/10 03:59:03;;;;;;;;;;;11.60;99.90;;;;;;5037270;28;20424;-74
2021/12/10 04:01:30;;;;;;;;;;;11.60;99.90;;;;;;5037075;28;19913;-74
2021/12/10 04:03:58;;;;;;;;;;;11.60;99.90;;;;;;5037010;28;19909;-74
2021/12/10 04:06:24;;;;;;;;;;;11.70;99.90;;;;;;5037113;28;19909;-74
2021/12/10 04:08:50;;;;;;;;;;;11.60;99.90;;;;;;5037099;28;19909;-73
2021/12/10 04:11:16;;;;;;;;;;;11.70;99.90;;;;;;5037033;28;19909;-74
2021/12/10 04:13:47;;;;;;;;;;;11.70;99.90;;;;;;5036851;28;20356;-73
2021/12/10 04:16:13;;;;;;;;;;;11.70;99.90;;;;;;5023308;28;19909;-73
2021/12/10 04:18:39;;;;;;;;;;;11.80;99.90;;;;;;5017828;28;20027;-72
2021/12/10 04:21:05;;;;;;;;;;;11.80;99.90;;;;;;5033208;28;20384;-73
2021/12/10 04:23:31;;;;;;;;;;;11.80;99.90;;;;;;5040684;28;20400;-73
2021/12/10 04:25:57;;;;;;;;;;;11.80;99.90;;;;;;5022892;28;19913;-75
2021/12/10 04:28:23;;;;;;;;;;;11.80;99.90;;;;;;5022974;28;19971;-72
2021/12/10 04:30:49;;;;;;;;;;;11.80;99.90;;;;;;5040646;28;19916;-72
2021/12/10 04:33:17;;;;;;;;;;;11.90;99.90;;;;;;5039314;28;19910;-72
2021/12/10 04:35:44;;;;;;;;;;;11.90;99.90;;;;;;5022757;28;20373;-72
2021/12/10 04:38:10;;;;;;;;;;;11.90;99.90;;;;;;5040402;28;19936;-72
2021/12/10 04:40:35;;;;;;;;;;;11.90;99.90;;;;;;5040455;28;20236;-72
2021/12/10 04:43:01;;;;;;;;;;;12.00;99.90;;;;;;5040475;28;19952;-72
2021/12/10 04:45:27;;;;;;;;;;;12.00;99.90;;;;;;5040056;28;19940;-72
2021/12/10 04:47:53;;;;;;;;;;;12.00;99.90;;;;;;5040310;28;20385;-72
2021/12/10 04:50:19;;;;;;;;;;;12.00;99.90;;;;;;5022431;28;20373;-72
2021/12/10 04:52:45;;;;;;;;;;;12.10;99.90;;;;;;5040385;28;19913;-73
2021/12/10 04:55:12;;;;;;;;;;;12.10;99.90;;;;;;5022650;28;19909;-73
2021/12/10 04:57:38;;;;;;;;;;;12.10;99.90;;;;;;5040027;28;19913;-73
2021/12/10 05:00:04;;;;;;;;;;;12.10;99.90;;;;;;5040082;28;19995;-73
2021/12/10 05:02:30;;;;;;;;;;;12.10;99.90;;;;;;5039858;28;20285;-72
2021/12/10 05:04:58;;;;;;;;;;;12.10;99.90;;;;;;5022046;28;19936;-72
2021/12/10 05:07:24;;;;;;;;;;;12.10;99.90;;;;;;5039522;28;19913;-73
2021/12/10 05:09:49;;;;;;;;;;;12.10;99.90;;;;;;5039304;28;19921;-76
2021/12/10 05:12:15;;;;;;;;;;;12.10;99.90;;;;;;5021264;28;19928;-75
2021/12/10 05:14:41;;;;;;;;;;;12.00;99.90;;;;;;5037994;28;20000;-76
2021/12/10 05:17:09;;;;;;;;;;;12.10;99.90;;;;;;5039114;28;19909;-76
2021/12/10 05:19:36;;;;;;;;;;;12.00;99.90;;;;;;5038017;28;20369;-75
2021/12/10 05:22:03;;;;;;;;;;;11.90;99.90;;;;;;5021321;28;19909;-75
2021/12/10 05:24:30;;;;;;;;;;;11.90;99.90;;;;;;5021240;28;20277;-75
2021/12/10 05:26:56;;;;;;;;;;;11.80;99.90;;;;;;5021196;28;19923;-75
2021/12/10 05:29:22;;;;;;;;;;;11.80;99.90;;;;;;5021076;28;19963;-75
2021/12/10 05:31:48;;;;;;;;;;;11.70;99.90;;;;;;5020553;28;19909;-75
2021/12/10 05:34:15;;;;;;;;;;;11.70;99.90;;;;;;5038833;28;20508;-75
2021/12/10 05:36:40;;;;;;;;;;;11.60;99.90;;;;;;5021051;28;19913;-75
2021/12/10 05:39:07;;;;;;;;;;;11.60;99.90;;;;;;5031887;28;19928;-75
2021/12/10 05:41:33;;;;;;;;;;;11.50;99.90;;;;;;5020682;28;20285;-75
2021/12/10 05:43:59;;;;;;;;;;;11.50;99.90;;;;;;5038692;28;19909;-75
2021/12/10 05:46:24;;;;;;;;;;;11.50;99.90;;;;;;5038607;28;19913;-75
2021/12/10 05:48:50;;;;;;;;;;;11.40;99.90;;;;;;5038638;28;19915;-75
2021/12/10 05:51:16;;;;;;;;;;;11.40;99.90;;;;;;5038460;28;20361;-75
2021/12/10 05:53:41;;;;;;;;;;;11.30;99.90;;;;;;5037270;28;19955;-75
2021/12/10 05:56:07;;;;;;;;;;;11.30;99.90;;;;;;5021212;28;19913;-75
2021/12/10 05:58:33;;;;;;;;;;;11.20;99.90;;;;;;5038807;28;19920;-76
2021/12/10 06:01:09;;;;;;;;;;;11.20;99.90;;;;;;5036738;28;19913;-75
2021/12/10 06:03:36;;;;;;;;;;;11.20;99.90;;;;;;5037414;28;20027;-75
2021/12/10 06:06:02;;;;;;;;;;;11.20;99.90;;;;;;5038852;28;19960;-75
2021/12/10 06:08:28;;;;;;;;;;;11.20;99.90;;;;;;5038560;28;19909;-75
2021/12/10 06:10:55;;;;;;;;;;;11.10;99.90;;;;;;5028948;28;19993;-75
2021/12/10 06:13:21;;;;;;;;;;;11.10;99.90;;;;;;5035238;28;19921;-75
2021/12/10 06:15:47;;;;;;;;;;;11.00;99.90;;;;;;5028386;28;19913;-77
2021/12/10 06:18:13;;;;;;;;;;;11.00;99.90;;;;;;5018394;28;19993;-74
2021/12/10 06:20:41;;;;;;;;;;;11.00;99.90;;;;;;5028280;28;19909;-75
2021/12/10 06:23:07;;;;;;;;;;;11.00;99.90;;;;;;5038395;28;19937;-75
2021/12/10 06:25:33;;;;;;;;;;;10.90;99.90;;;;;;5038588;28;19916;-75
2021/12/10 06:27:59;;;;;;;;;;;10.80;99.90;;;;;;5038540;28;19909;-75
2021/12/10 06:30:29;;;;;;;;;;;10.80;99.90;;;;;;5038285;28;19913;-74
2021/12/10 06:32:55;;;;;;;;;;;10.70;99.90;;;;;;5038322;28;19909;-75
2021/12/10 06:35:22;;;;;;;;;;;10.70;99.90;;;;;;5020600;28;19939;-75
2021/12/10 06:37:48;;;;;;;;;;;10.70;99.90;;;;;;5038117;28;19920;-76
2021/12/10 06:40:16;;;;;;;;;;;10.70;99.90;;;;;;5037599;28;19941;-75
2021/12/10 06:42:41;;;;;;;;;;;10.70;99.90;;;;;;5019429;28;19968;-72
2021/12/10 06:45:09;;;;;;;;;;;10.60;99.90;;;;;;5016959;28;20412;-73
2021/12/10 06:47:34;;;;;;;;;;;10.60;99.90;;;;;;5018294;28;20314;-73
2021/12/10 06:50:00;;;;;;;;;;;10.60;99.90;;;;;;5018365;28;19909;-74
2021/12/10 06:52:26;;;;;;;;;;;10.60;99.90;;;;;;5018324;28;19917;-76
2021/12/10 06:54:52;;;;;;;;;;;10.50;99.90;;;;;;5018255;28;20420;-75
2021/12/10 06:57:18;;;;;;;;;;;10.60;99.90;;;;;;5033793;28;19913;-75
2021/12/10 06:59:44;;;;;;;;;;;10.50;99.90;;;;;;5037489;28;20396;-76
2021/12/10 07:02:11;;;;;;;;;;;10.50;99.90;;;;;;5037618;28;19909;-76
2021/12/10 07:04:40;;;;;;;;;;;10.50;99.90;;;;;;5038036;28;19909;-75
2021/12/10 07:07:07;;;;;;;;;;;10.50;99.90;;;;;;5019977;28;20004;-77
2021/12/10 07:09:33;;;;;;;;;;;10.50;99.90;;;;;;5038016;28;20400;-75
2021/12/10 07:11:58;;;;;;;;;;;10.40;99.90;;;;;;5037233;28;20370;-75
2021/12/10 07:14:24;;;;;;;;;;;10.40;99.90;;;;;;5038008;28;19913;-76
2021/12/10 07:16:51;;;;;;;;;;;10.40;99.90;;;;;;5003160;28;20215;-75
2021/12/10 07:19:17;;;;;;;;;;;10.50;99.90;;;;;;5018333;28;19920;-75
2021/12/10 07:21:44;;;;;;;;;;;10.50;99.90;;;;;;5036726;28;19932;-75
2021/12/10 07:24:11;;;;;;;;;;;10.40;99.90;;;;;;5037581;28;20314;-75
2021/12/10 07:26:38;;;;;;;;;;;10.40;99.90;;;;;;5037174;28;19909;-75
2021/12/10 07:29:05;;;;;;;;;;;10.40;99.90;;;;;;5037086;28;19960;-74
2021/12/10 07:31:31;;;;;;;;;;;10.40;99.90;;;;;;5019392;28;19932;-75
2021/12/10 07:33:56;;;;;;;;;;;10.30;99.90;;;;;;5036475;28;19920;-75
2021/12/10 07:36:23;;;;;;;;;;;10.30;99.90;;;;;;5036451;28;19913;-76
2021/12/10 07:38:49;;;;;;;;;;;10.30;99.90;;;;;;5036705;28;19913;-76
2021/12/10 07:41:15;;;;;;;;;;;10.30;99.90;;;;;;5036763;28;19921;-75
2021/12/10 07:43:41;;;;;;;;;;;10.20;99.90;;;;;;5036957;28;19909;-76
2021/12/10 07:46:06;;;;;;;;;;;10.10;99.90;;;;;;5018855;28;19910;-75
2021/12/10 07:48:34;;;;;;;;;;;9.90;99.90;;;;;;5018578;28;19919;-75
2021/12/10 07:51:06;;;;;;;;;;;9.80;99.90;;;;;;5019249;28;19920;-75
2021/12/10 07:53:32;;;;;;;;;;;9.60;99.90;;;;;;5019379;28;19916;-75
2021/12/10 07:56:01;;;;;;;;;;;9.60;99.90;;;;;;5041132;28;20503;-75
2021/12/10 07:58:27;;;;;;;;;;;9.50;99.90;;;;;;5041008;28;19913;-75
2021/12/10 08:00:53;;;;;;;;;;;9.50;99.90;;;;;;5041041;28;20024;-75
2021/12/10 08:03:19;;;;;;;;;;;9.50;99.90;;;;;;5021829;28;19909;-75
2021/12/10 08:05:45;;;;;;;;;;;9.40;99.90;;;;;;5003662;28;20366;-76
2021/12/10 08:08:11;;;;;;;;;;;9.30;99.90;;;;;;5021292;28;20293;-75
2021/12/10 08:10:38;;;;;;;;;;;9.30;99.90;;;;;;5021408;28;19909;-73
2021/12/10 08:13:04;;;;;;;;;;;9.20;99.90;;;;;;5035360;28;19932;-73
2021/12/10 08:15:29;;;;;;;;;;;9.10;99.90;;;;;;5039996;28;20293;-73
2021/12/10 08:17:55;;;;;;;;;;;9.20;99.90;;;;;;5022453;28;19913;-73
2021/12/10 08:20:22;;;;;;;;;;;9.30;99.90;;;;;;5040471;28;19939;-73
2021/12/10 08:22:49;;;;;;;;;;;9.30;99.90;;;;;;5040703;28;19909;-74
2021/12/10 08:25:16;;;;;;;;;;;9.40;99.90;;;;;;5040915;28;20277;-74
2021/12/10 08:27:41;;;;;;;;;;;9.50;99.90;;;;;;5039499;28;20012;-73
2021/12/10 08:30:09;;;;;;;;;;;9.60;99.90;;;;;;5020889;28;20289;-72
2021/12/10 08:32:35;;;;;;;;;;;9.70;99.90;;;;;;5020848;28;19914;-73
2021/12/10 08:35:03;;;;;;;;;;;9.70;99.90;;;;;;5025909;28;19916;-73
2021/12/10 08:37:29;;;;;;;;;;;9.70;99.90;;;;;;5024953;28;19916;-72
2021/12/10 08:39:55;;;;;;;;;;;9.70;99.90;;;;;;5020847;28;19909;-72
2021/12/10 08:42:21;;;;;;;;;;;9.70;99.90;;;;;;5020517;28;19910;-73
2021/12/10 08:44:46;;;;;;;;;;;9.80;99.90;;;;;;5020936;28;19952;-72
2021/12/10 08:47:12;;;;;;;;;;;9.80;99.90;;;;;;5020365;28;19916;-73
2021/12/10 08:49:39;;;;;;;;;;;9.80;99.90;;;;;;5020699;28;20279;-73
2021/12/10 08:52:06;;;;;;;;;;;9.80;99.90;;;;;;5020565;28;20400;-73
2021/12/10 08:54:32;;;;;;;;;;;9.80;99.90;;;;;;5020651;28;19909;-73
2021/12/10 08:56:58;;;;;;;;;;;9.80;99.90;;;;;;5020347;28;20004;-73
2021/12/10 08:59:25;;;;;;;;;;;9.80;99.90;;;;;;5020503;28;19937;-73
2021/12/10 09:01:53;;;;;;;;;;;9.80;99.90;;;;;;5020128;28;19909;-73
2021/12/10 09:04:18;;;;;;;;;;;9.80;99.90;;;;;;5020383;28;19917;-75
2021/12/10 09:06:46;;;;;;;;;;;9.70;99.90;;;;;;5032720;28;20377;-76
2021/12/10 09:09:12;;;;;;;;;;;9.50;99.90;;;;;;5039799;28;20357;-75
2021/12/10 09:11:39;;;;;;;;;;;9.30;99.90;;;;;;5039447;28;19913;-76
2021/12/10 09:14:07;;;;;;;;;;;9.10;99.90;;;;;;5039879;28;20377;-75
2021/12/10 09:16:35;;;;;;;;;;;8.90;99.90;;;;;;5023738;28;21241;-76
2021/12/10 09:19:03;;;;;;;;;;;8.70;99.90;;;;;;5007773;28;19917;-76
2021/12/10 09:21:29;;;;;;;;;;;8.70;99.90;;;;;;5039645;28;20316;-75
2021/12/10 09:24:00;;;;;;;;;;;8.60;99.90;;;;;;5039728;28;19920;-75
2021/12/10 09:26:27;;;;;;;;;;;8.60;99.90;;;;;;5039436;28;19913;-75
2021/12/10 09:28:53;;;;;;;;;;;8.50;99.90;;;;;;5039868;28;19944;-75
2021/12/10 09:31:24;;;;;;;;;;;8.50;99.90;;;;;;5039423;28;19931;-75
2021/12/10 09:33:54;;;;;;;;;;;8.40;99.90;;;;;;5039659;28;19909;-76
2021/12/10 09:36:20;;;;;;;;;;;8.30;99.90;;;;;;5021643;28;19909;-75
2021/12/10 09:38:45;;;;;;;;;;;8.20;99.90;;;;;;5038899;28;20284;-76
2021/12/10 09:41:11;;;;;;;;;;;8.20;99.90;;;;;;5003685;28;19980;-75
2021/12/10 09:43:38;;;;;;;;;;;8.10;99.90;;;;;;5019659;28;19916;-76
2021/12/10 09:46:04;;;;;;;;;;;8.10;99.90;;;;;;5017986;28;19925;-75
2021/12/10 09:48:30;;;;;;;;;;;8.10;99.90;;;;;;5019486;28;19937;-74
2021/12/10 09:51:02;;;;;;;;;;;8.10;99.90;;;;;;5019300;28;19944;-74
2021/12/10 09:53:29;;;;;;;;;;;8.20;99.90;;;;;;5018197;28;20370;-75
2021/12/10 09:55:55;;;;;;;;;;;8.20;99.90;;;;;;5019100;28;19960;-75
2021/12/10 09:58:21;;;;;;;;;;;8.30;99.90;;;;;;5019289;28;19918;-74
2021/12/10 10:00:49;;;;;;;;;;;8.40;99.90;;;;;;5007887;28;20592;-75
2021/12/10 10:03:16;;;;;;;;;;;8.40;99.90;;;;;;5021142;28;19913;-75
2021/12/10 10:05:43;;;;;;;;;;;8.50;99.90;;;;;;5039080;28;19909;-74
2021/12/10 10:08:11;;;;;;;;;;;8.60;99.90;;;;;;5038928;28;20363;-74
2021/12/10 10:10:40;;;;;;;;;;;8.60;99.90;;;;;;5037500;28;19913;-75
2021/12/10 10:13:06;;;;;;;;;;;8.60;99.90;;;;;;5032010;28;19967;-75
2021/12/10 10:15:33;;;;;;;;;;;8.60;99.90;;;;;;5038123;28;19913;-75
2021/12/10 10:18:00;;;;;;;;;;;8.60;99.90;;;;;;5021547;28;19913;-75
2021/12/10 10:20:29;;;;;;;;;;;8.70;99.90;;;;;;5027631;28;19909;-76
2021/12/10 10:22:55;;;;;;;;;;;8.70;99.90;;;;;;5038466;28;19909;-75
2021/12/10 10:25:22;;;;;;;;;;;8.70;99.90;;;;;;5020835;28;20369;-75
2021/12/10 10:27:48;;;;;;;;;;;8.70;99.90;;;;;;5038540;28;19909;-75
2021/12/10 10:30:13;;;;;;;;;;;8.70;99.90;;;;;;5038411;28;19963;-75
2021/12/10 10:32:44;;;;;;;;;;;8.60;99.90;;;;;;5020518;28;19941;-75
2021/12/10 10:35:15;;;;;;;;;;;8.60;99.90;;;;;;5020695;28;19909;-76
2021/12/10 10:37:41;;;;;;;;;;;8.60;99.90;;;;;;5037770;28;20435;-75
2021/12/10 10:40:08;;;;;;;;;;;8.50;99.90;;;;;;5037662;28;19909;-76
2021/12/10 10:42:33;;;;;;;;;;;8.50;99.90;;;;;;5038063;28;19909;-76
2021/12/10 10:45:02;;;;;;;;;;;8.40;99.90;;;;;;5019916;28;20323;-76
2021/12/10 10:47:29;;;;;;;;;;;8.30;99.90;;;;;;5038088;28;20307;-76
2021/12/10 10:50:00;;;;;;;;;;;8.10;99.90;;;;;;5020359;28;19929;-76
2021/12/10 10:52:33;;;;;;;;;;;8.00;99.90;;;;;;5037966;28;20372;-76
2021/12/10 10:55:14;;;;;;;;;;;8.00;99.90;;;;;;5038261;28;20052;-76
2021/12/10 10:57:48;;;;;;;;;;;7.90;99.90;;;;;;5038107;28;19910;-76
2021/12/10 11:00:17;;;;;;;;;;;8.00;99.90;;;;;;5037697;28;20034;-75
2021/12/10 11:02:51;;;;;;;;;;;7.90;99.90;;;;;;5019816;28;19971;-75
2021/12/10 11:05:16;;;;;;;;;;;7.90;99.90;;;;;;5037756;28;19916;-75
2021/12/10 11:07:44;;;;;;;;;;;8.00;99.90;;;;;;5020184;28;19910;-75
2021/12/10 11:10:10;;;;;;;;;;;8.00;99.90;;;;;;5037765;28;19909;-75
2021/12/10 11:12:40;;;;;;;;;;;8.10;99.90;;;;;;5037383;28;19928;-76
2021/12/10 11:15:08;;;;;;;;;;;8.10;99.90;;;;;;5033374;28;19913;-77
2021/12/10 11:17:53;;;;;;;;;;;8.20;99.90;;;;;;5018882;28;20070;-77
2021/12/10 11:20:35;;;;;;;;;;;8.30;99.90;;;;;;5020849;28;19920;-77
2021/12/10 11:23:06;;;;;;;;;;;8.20;99.90;;;;;;5032012;28;19928;-78
2021/12/10 11:25:53;;;;;;;;;;;8.20;99.90;;;;;;5016568;28;19953;-78
2021/12/10 11:28:26;;;;;;;;;;;8.10;99.90;;;;;;5001773;28;19910;-77
2021/12/10 11:31:02;;;;;;;;;;;8.00;99.90;;;;;;5035818;28;20403;-79
2021/12/10 11:33:31;;;;;;;;;;;7.90;99.90;;;;;;5037161;28;20270;-78
2021/12/10 11:35:59;;;;;;;;;;;7.90;99.90;;;;;;5034258;28;19977;-79
2021/12/10 11:38:28;;;;;;;;;;;7.80;99.90;;;;;;5035538;28;19939;-79
2021/12/10 11:40:59;;;;;;;;;;;7.80;99.90;;;;;;5019415;28;19917;-78
2021/12/10 11:48:43;;;;;;;;;;;7.80;99.90;;;;;;5023044;28;19972;-77
2021/12/10 11:51:09;;;;;;;;;;;7.80;99.90;;;;;;5017752;28;20386;-78
2021/12/10 11:53:55;;;;;;;;;;;7.80;99.90;;;;;;5017469;28;19913;-77
2021/12/10 11:56:23;;;;;;;;;;;7.90;99.90;;;;;;4999325;28;19909;-77
2021/12/10 11:59:04;;;;;;;;;;;7.80;99.90;;;;;;4999506;28;19924;-79
2021/12/10 12:01:30;;;;;;;;;;;7.80;99.90;;;;;;5015760;28;20357;-77
2021/12/10 12:03:56;;;;;;;;;;;7.90;99.90;;;;;;4999761;28;19909;-78
2021/12/10 12:06:21;;;;;;;;;;;7.80;99.90;;;;;;5017652;28;19909;-78
2021/12/10 12:08:47;;;;;;;;;;;7.80;99.90;;;;;;5017260;28;19909;-78
2021/12/10 12:11:12;;;;;;;;;;;7.80;99.90;;;;;;5017194;28;19909;-77
2021/12/10 12:13:43;;;;;;;;;;;7.80;99.90;;;;;;5035991;28;19921;-77
2021/12/10 12:16:14;;;;;;;;;;;7.70;99.90;;;;;;5030306;28;19936;-77
2021/12/10 12:18:41;;;;;;;;;;;7.60;99.90;;;;;;5018617;28;19976;-76
2021/12/10 12:27:14;;;;;;;;;;;7.50;99.90;;;;;;5021253;28;19987;-77
2021/12/10 12:29:48;;;;;;;;;;;7.50;99.90;;;;;;5036589;28;19909;-79
2021/12/10 12:32:19;;;;;;;;;;;7.40;99.90;;;;;;5036382;28;20099;-78
2021/12/10 12:34:45;;;;;;;;;;;7.40;99.90;;;;;;5017486;28;19914;-78
2021/12/10 12:37:13;;;;;;;;;;;7.40;99.90;;;;;;4999347;28;19920;-78
2021/12/10 12:39:41;;;;;;;;;;;7.40;99.90;;;;;;5021097;28;19948;-77
2021/12/10 12:42:16;;;;;;;;;;;7.30;99.90;;;;;;5038358;28;20396;-77
2021/12/10 12:44:41;;;;;;;;;;;7.30;99.90;;;;;;5039096;28;19913;-76
2021/12/10 12:47:07;;;;;;;;;;;7.30;99.90;;;;;;5039308;28;19913;-78
2021/12/10 12:49:48;;;;;;;;;;;7.30;99.90;;;;;;5039701;28;20404;-78
2021/12/10 12:52:25;;;;;;;;;;;7.30;99.90;;;;;;5021539;28;19924;-78
2021/12/10 12:55:17;;;;;;;;;;;7.20;99.90;;;;;;5038879;28;19945;-78
2021/12/10 12:57:48;;;;;;;;;;;7.20;99.90;;;;;;5024193;28;19909;-77
2021/12/10 13:00:26;;;;;;;;;;;7.20;99.90;;;;;;5039773;28;19909;-77
2021/12/10 13:02:53;;;;;;;;;;;7.10;99.90;;;;;;5037485;28;19979;-78
2021/12/10 13:05:19;;;;;;;;;;;7.10;99.90;;;;;;5020875;28;19941;-77
2021/12/10 13:07:45;;;;;;;;;;;7.10;99.90;;;;;;5002682;28;20373;-77
2021/12/10 13:10:18;;;;;;;;;;;7.10;99.90;;;;;;5002558;28;20284;-78
2021/12/10 13:13:07;;;;;;;;;;;7.10;99.90;;;;;;5031309;28;20300;-77
2021/12/10 13:15:33;;;;;;;;;;;7.00;99.90;;;;;;5015913;28;20273;-77
2021/12/10 13:18:00;;;;;;;;;;;7.00;99.90;;;;;;5039749;28;20672;-77
2021/12/10 13:20:29;;;;;;;;;;;7.00;99.90;;;;;;5022224;28;19913;-77
2021/12/10 13:22:57;;;;;;;;;;;7.00;99.90;;;;;;5039508;28;19961;-77
2021/12/10 13:25:25;;;;;;;;;;;7.00;99.90;;;;;;5022196;28;19909;-77
2021/12/10 13:27:50;;;;;;;;;;;7.10;99.90;;;;;;5039660;28;19936;-76
2021/12/10 13:30:21;;;;;;;;;;;7.20;99.90;;;;;;5039521;28;19909;-77
2021/12/10 13:32:48;;;;;;;;;;;7.20;99.90;;;;;;5039416;28;19909;-76
2021/12/10 13:35:15;;;;;;;;;;;7.30;99.90;;;;;;5038343;28;19909;-77
2021/12/10 13:37:41;;;;;;;;;;;7.40;99.90;;;;;;5038020;28;19909;-77
2021/12/10 13:40:07;;;;;;;;;;;7.40;99.90;;;;;;5039533;28;19916;-78
2021/12/10 13:42:33;;;;;;;;;;;7.40;99.90;;;;;;5039139;28;20435;-77
2021/12/10 13:44:59;;;;;;;;;;;7.40;99.90;;;;;;5039254;28;19913;-76
2021/12/10 13:47:27;;;;;;;;;;;7.50;99.90;;;;;;5038296;28;19913;-76
2021/12/10 13:49:53;;;;;;;;;;;7.50;99.90;;;;;;5039547;28;19916;-77
2021/12/10 13:52:32;;;;;;;;;;;7.50;99.90;;;;;;5039042;28;19909;-76
2021/12/10 13:54:58;;;;;;;;;;;7.50;99.90;;;;;;5039327;28;20020;-77
2021/12/10 13:57:23;;;;;;;;;;;7.50;99.90;;;;;;5021068;28;19949;-77
2021/12/10 13:59:55;;;;;;;;;;;7.50;99.90;;;;;;5038870;28;19913;-77
2021/12/10 14:02:30;;;;;;;;;;;7.50;99.90;;;;;;5037646;28;19963;-78
2021/12/10 14:04:56;;;;;;;;;;;7.50;99.90;;;;;;5038882;28;19916;-78
2021/12/10 14:07:23;;;;;;;;;;;7.50;99.90;;;;;;5021205;28;19910;-78
2021/12/10 14:09:51;;;;;;;;;;;7.50;99.90;;;;;;5038740;28;20003;-77
2021/12/10 14:12:41;;;;;;;;;;;7.50;99.90;;;;;;5020682;28;20374;-77
2021/12/10 14:15:07;;;;;;;;;;;7.50;99.90;;;;;;5032038;28;19909;-77
2021/12/10 14:17:34;;;;;;;;;;;7.60;99.90;;;;;;5038939;28;20350;-78
2021/12/10 14:20:10;;;;;;;;;;;7.60;99.90;;;;;;5020990;28;19913;-78
2021/12/10 14:22:51;;;;;;;;;;;7.60;99.90;;;;;;5037147;28;20011;-77
2021/12/10 14:25:19;;;;;;;;;;;7.70;99.90;;;;;;5038340;28;20427;-76
2021/12/10 14:27:53;;;;;;;;;;;7.80;99.90;;;;;;5020647;28;19916;-76
2021/12/10 14:30:22;;;;;;;;;;;7.80;99.90;;;;;;5038262;28;19932;-77
2021/12/10 14:32:57;;;;;;;;;;;7.70;99.90;;;;;;5038246;28;20338;-78
2021/12/10 14:35:24;;;;;;;;;;;7.70;99.90;;;;;;5038493;28;19952;-76
2021/12/10 14:37:56;;;;;;;;;;;7.70;99.90;;;;;;5020409;28;19909;-77
2021/12/10 14:40:23;;;;;;;;;;;7.80;99.90;;;;;;5037431;28;20297;-76
2021/12/10 14:43:08;;;;;;;;;;;7.80;99.90;;;;;;5001156;28;19955;-76
2021/12/10 14:45:53;;;;;;;;;;;7.80;99.90;;;;;;5016806;28;19910;-76
2021/12/10 14:48:19;;;;;;;;;;;7.80;99.90;;;;;;5018256;28;19910;-76